Time;durP1;ratioP1;P1;durP2;ratioP2;P2;SDS_P1;SDS_P2;PMS_P1;PMS_P2;Temp;Humidity;BMP_temperature;BMP_pressure;BME280_temperature;BME280_humidity;BME280_pressure;Samples;Min_cycle;Max_cycle;Signal;HPM_P1;HPM_P2
2021/09/15 00:01:31;;;;;;;29.58;16.95;;;13.90;99.90;;;;;;4940612;29;20465;-95
2021/09/15 00:03:57;;;;;;;29.58;17.52;;;13.90;99.90;;;;;;4940961;29;20589;-94
2021/09/15 00:06:22;;;;;;;27.45;15.90;;;13.90;99.90;;;;;;4944757;28;20503;-93
2021/09/15 00:08:48;;;;;;;28.55;16.58;;;13.90;99.90;;;;;;4950932;29;20056;-94
2021/09/15 00:11:17;;;;;;;25.77;15.75;;;13.90;99.90;;;;;;4951331;28;20113;-96
2021/09/15 00:13:43;;;;;;;28.17;16.67;;;13.90;99.90;;;;;;4952563;29;20023;-95
2021/09/15 00:16:08;;;;;;;26.67;15.30;;;13.80;99.90;;;;;;4952993;29;20035;-93
2021/09/15 00:18:34;;;;;;;32.13;16.08;;;13.90;99.90;;;;;;4962205;28;20039;-95
2021/09/15 00:21:00;;;;;;;26.52;15.25;;;13.90;99.90;;;;;;4962386;28;20022;-96
2021/09/15 00:23:25;;;;;;;28.60;15.73;;;13.90;99.90;;;;;;4962078;28;20030;-94
2021/09/15 00:25:52;;;;;;;29.67;16.35;;;13.90;99.90;;;;;;4945411;29;20031;-94
2021/09/15 00:28:18;;;;;;;35.30;16.80;;;13.80;99.90;;;;;;4943306;29;20039;-95
2021/09/15 00:30:43;;;;;;;29.27;15.73;;;13.90;99.90;;;;;;4943281;29;20078;-93
2021/09/15 00:33:09;;;;;;;24.65;15.40;;;13.90;99.90;;;;;;4942172;29;20027;-94
2021/09/15 00:35:35;;;;;;;26.23;14.50;;;13.90;99.90;;;;;;4941140;29;20031;-93
2021/09/15 00:38:01;;;;;;;24.25;14.35;;;13.90;99.90;;;;;;4940710;29;20030;-95
2021/09/15 00:40:26;;;;;;;27.25;14.20;;;13.90;99.90;;;;;;4940626;29;20061;-94
2021/09/15 00:42:52;;;;;;;24.40;14.63;;;13.90;99.90;;;;;;4940286;29;20098;-94
2021/09/15 00:45:18;;;;;;;25.27;14.77;;;13.90;99.90;;;;;;4939623;29;20083;-94
2021/09/15 00:47:43;;;;;;;24.23;14.55;;;13.90;99.90;;;;;;4940174;29;20027;-94
2021/09/15 00:50:10;;;;;;;24.27;14.98;;;13.90;99.90;;;;;;4939698;29;20035;-94
2021/09/15 00:52:36;;;;;;;25.33;14.73;;;13.90;99.90;;;;;;4939510;29;20114;-96
2021/09/15 00:55:01;;;;;;;27.40;15.07;;;13.90;99.90;;;;;;4939534;28;20117;-96
2021/09/15 00:57:27;;;;;;;25.65;14.63;;;13.90;99.90;;;;;;4940021;29;20057;-95
2021/09/15 00:59:53;;;;;;;25.25;14.18;;;13.90;99.90;;;;;;4940601;29;20477;-95
2021/09/15 01:02:19;;;;;;;28.60;15.57;;;13.90;99.90;;;;;;4939771;29;20122;-94
2021/09/15 01:04:45;;;;;;;28.48;15.13;;;13.90;99.90;;;;;;4939901;29;20067;-95
2021/09/15 01:07:11;;;;;;;27.38;14.43;;;13.90;99.90;;;;;;4939587;29;20047;-94
2021/09/15 01:09:37;;;;;;;23.80;14.00;;;13.90;99.90;;;;;;4939192;29;20074;-95
2021/09/15 01:12:04;;;;;;;29.15;14.15;;;13.90;99.90;;;;;;4938381;29;20362;-94
2021/09/15 01:14:29;;;;;;;25.25;14.10;;;13.80;99.90;;;;;;4938721;29;20023;-95
2021/09/15 01:16:59;;;;;;;25.85;13.50;;;13.80;99.90;;;;;;4939318;29;20038;-95
2021/09/15 01:19:26;;;;;;;21.17;11.52;;;13.80;99.90;;;;;;4938803;29;20078;-95
2021/09/15 01:21:53;;;;;;;20.70;11.90;;;13.80;99.90;;;;;;4938986;28;20039;-96
2021/09/15 01:24:20;;;;;;;22.13;12.43;;;13.80;99.90;;;;;;4938464;29;20027;-95
2021/09/15 01:26:46;;;;;;;18.08;10.77;;;13.80;99.90;;;;;;4938166;29;20031;-94
2021/09/15 01:29:19;;;;;;;18.73;10.35;;;13.70;99.90;;;;;;4938534;29;20096;-96
2021/09/15 01:31:55;;;;;;;17.35;10.10;;;13.70;99.90;;;;;;4937805;29;20023;-94
2021/09/15 01:34:22;;;;;;;20.70;10.45;;;13.70;99.90;;;;;;4957934;29;20043;-94
2021/09/15 01:36:48;;;;;;;15.45;8.85;;;13.60;99.90;;;;;;4961392;28;20039;-94
2021/09/15 01:39:14;;;;;;;22.38;11.25;;;13.60;99.90;;;;;;4961260;29;20054;-95
2021/09/15 01:41:40;;;;;;;18.77;9.93;;;13.60;99.90;;;;;;4940363;29;20375;-96
2021/09/15 01:44:06;;;;;;;17.33;9.93;;;13.50;99.90;;;;;;4938455;29;20499;-94
2021/09/15 01:46:31;;;;;;;18.77;9.85;;;13.50;99.90;;;;;;4938340;29;20039;-94
2021/09/15 01:48:57;;;;;;;14.48;7.68;;;13.50;99.90;;;;;;4939091;29;20019;-95
2021/09/15 01:51:23;;;;;;;16.05;8.50;;;13.50;99.90;;;;;;4941564;29;20031;-95
2021/09/15 01:53:48;;;;;;;16.70;8.13;;;13.50;99.90;;;;;;4958107;29;20106;-93
2021/09/15 01:56:15;;;;;;;25.35;8.02;;;13.50;99.90;;;;;;4958237;29;20054;-94
2021/09/15 01:58:41;;;;;;;14.40;8.20;;;13.50;99.90;;;;;;4940846;29;20440;-95
2021/09/15 02:01:06;;;;;;;16.52;8.77;;;13.50;99.90;;;;;;4940961;29;20023;-95
2021/09/15 02:03:32;;;;;;;13.68;7.97;;;13.50;99.90;;;;;;4957929;28;20030;-95
2021/09/15 02:05:58;;;;;;;15.65;8.00;;;13.50;99.90;;;;;;4933382;29;20047;-95
2021/09/15 02:08:23;;;;;;;13.95;8.73;;;13.50;99.90;;;;;;4918430;29;20052;-94
2021/09/15 02:10:50;;;;;;;13.27;7.80;;;13.50;99.90;;;;;;4918447;29;20039;-95
2021/09/15 02:13:16;;;;;;;12.27;7.70;;;13.50;99.90;;;;;;4918121;29;20036;-94
2021/09/15 02:15:41;;;;;;;10.43;6.78;;;13.50;99.90;;;;;;4918276;29;20036;-95
2021/09/15 02:18:07;;;;;;;12.00;7.63;;;13.50;99.90;;;;;;4919398;29;20024;-94
2021/09/15 02:20:33;;;;;;;11.85;6.97;;;13.50;99.90;;;;;;4917729;29;20035;-95
2021/09/15 02:22:58;;;;;;;11.70;7.00;;;13.40;99.90;;;;;;4918315;29;20025;-95
2021/09/15 02:25:24;;;;;;;10.45;6.75;;;13.40;99.90;;;;;;4918830;29;20172;-94
2021/09/15 02:27:49;;;;;;;11.15;6.38;;;13.40;99.90;;;;;;4917920;29;20050;-93
2021/09/15 02:30:15;;;;;;;10.63;6.57;;;13.40;99.90;;;;;;4917705;29;20043;-94
2021/09/15 02:32:41;;;;;;;10.05;7.00;;;13.30;99.90;;;;;;4918203;29;20032;-93
2021/09/15 02:35:07;;;;;;;10.57;6.03;;;13.30;99.90;;;;;;4919513;29;20029;-95
2021/09/15 02:37:33;;;;;;;12.48;7.22;;;13.30;99.90;;;;;;4919127;29;20486;-95
2021/09/15 02:39:59;;;;;;;10.00;6.28;;;13.30;99.90;;;;;;4919680;29;20028;-93
2021/09/15 02:42:24;;;;;;;12.13;6.80;;;13.20;99.90;;;;;;4923195;29;20032;-94
2021/09/15 02:44:50;;;;;;;11.45;6.10;;;13.20;99.90;;;;;;4924207;29;20032;-93
2021/09/15 02:47:15;;;;;;;11.45;5.93;;;13.20;99.90;;;;;;4919634;29;20036;-95
2021/09/15 02:49:41;;;;;;;13.68;7.60;;;13.20;99.90;;;;;;4919327;29;20024;-95
2021/09/15 02:52:07;;;;;;;13.93;7.32;;;13.20;99.90;;;;;;4918382;29;20036;-92
2021/09/15 02:54:32;;;;;;;13.43;7.15;;;13.10;99.90;;;;;;4918769;29;20032;-95
2021/09/15 02:56:58;;;;;;;12.80;6.85;;;13.10;99.90;;;;;;4918433;29;20028;-95
2021/09/15 02:59:24;;;;;;;12.57;7.78;;;13.00;99.90;;;;;;4918150;29;20040;-94
2021/09/15 03:01:49;;;;;;;18.15;8.05;;;13.10;99.90;;;;;;4916841;29;20123;-95
2021/09/15 03:04:15;;;;;;;13.75;7.47;;;13.10;99.90;;;;;;4917739;29;20032;-96
2021/09/15 03:06:41;;;;;;;11.82;7.32;;;13.00;99.90;;;;;;4917641;29;20052;-96
2021/09/15 03:09:06;;;;;;;14.13;7.88;;;13.00;99.90;;;;;;4917998;29;20058;-94
2021/09/15 03:11:33;;;;;;;13.18;7.18;;;13.10;99.90;;;;;;4917859;29;20024;-94
2021/09/15 03:13:58;;;;;;;14.95;8.18;;;13.10;99.90;;;;;;4917489;29;20036;-96
2021/09/15 03:16:25;;;;;;;14.93;7.35;;;13.00;99.90;;;;;;4917430;29;20024;-96
2021/09/15 03:18:51;;;;;;;11.43;7.00;;;13.10;99.90;;;;;;4917939;29;20091;-93
2021/09/15 03:21:16;;;;;;;14.27;7.63;;;13.00;99.90;;;;;;4917791;29;20036;-94
2021/09/15 03:23:42;;;;;;;14.70;7.88;;;13.00;99.90;;;;;;4917987;29;20390;-93
2021/09/15 03:26:08;;;;;;;14.60;7.53;;;13.00;99.90;;;;;;4918071;29;20465;-93
2021/09/15 03:28:33;;;;;;;12.45;7.47;;;13.00;99.90;;;;;;4917433;29;20447;-95
2021/09/15 03:30:59;;;;;;;12.75;7.55;;;13.00;99.90;;;;;;4917883;29;20405;-96
2021/09/15 03:33:25;;;;;;;14.68;6.95;;;13.00;99.90;;;;;;4918212;29;20742;-95
2021/09/15 03:35:50;;;;;;;11.80;6.43;;;13.00;99.90;;;;;;4917717;29;20028;-96
2021/09/15 03:38:16;;;;;;;13.20;6.63;;;13.00;99.90;;;;;;4918179;29;20496;-96
2021/09/15 03:40:42;;;;;;;12.32;8.00;;;13.10;99.90;;;;;;4918189;29;20066;-96
2021/09/15 03:43:07;;;;;;;13.07;7.00;;;13.00;99.90;;;;;;4918188;29;20541;-96
2021/09/15 03:45:33;;;;;;;14.50;7.20;;;13.00;99.90;;;;;;4917183;29;20079;-94
2021/09/15 03:47:59;;;;;;;14.75;7.53;;;13.00;99.90;;;;;;4916938;29;20029;-95
2021/09/15 03:50:25;;;;;;;11.18;6.13;;;13.00;99.90;;;;;;4917094;29;20032;-95
2021/09/15 03:52:51;;;;;;;11.27;6.57;;;13.00;99.90;;;;;;4917373;29;20367;-96
2021/09/15 03:55:17;;;;;;;11.73;5.85;;;13.00;99.90;;;;;;4927366;29;20032;-96
2021/09/15 03:57:44;;;;;;;10.52;6.18;;;12.90;99.90;;;;;;4927890;29;20036;-96
2021/09/15 04:00:11;;;;;;;11.55;6.13;;;13.00;99.90;;;;;;4927835;29;20028;-94
2021/09/15 04:02:37;;;;;;;12.35;6.82;;;12.90;99.90;;;;;;4922983;29;20529;-95
2021/09/15 04:05:03;;;;;;;13.30;7.40;;;12.90;99.90;;;;;;4923954;29;20036;-95
2021/09/15 04:07:28;;;;;;;11.93;6.90;;;12.90;99.90;;;;;;4919635;29;20052;-96
2021/09/15 04:09:54;;;;;;;12.35;7.32;;;12.80;99.90;;;;;;4917754;29;20028;-95
2021/09/15 04:12:19;;;;;;;16.13;7.55;;;12.70;99.90;;;;;;4917761;29;20036;-94
2021/09/15 04:14:45;;;;;;;13.25;6.38;;;12.70;99.90;;;;;;4921019;29;20362;-94
2021/09/15 04:17:11;;;;;;;10.00;6.22;;;12.70;99.90;;;;;;4918177;29;20553;-95
2021/09/15 04:19:36;;;;;;;9.60;5.70;;;12.70;99.90;;;;;;4916849;29;20174;-95
2021/09/15 04:22:02;;;;;;;11.63;6.60;;;12.70;99.90;;;;;;4916314;29;20035;-96
2021/09/15 04:32:27;;;;;;;11.43;6.32;;;12.70;99.90;;;;;;4877872;29;20178;-96
2021/09/15 04:34:53;;;;;;;11.77;6.60;;;12.70;99.90;;;;;;4877649;29;20755;-94
2021/09/15 04:37:18;;;;;;;11.90;6.45;;;12.70;99.90;;;;;;4877352;29;20045;-95
2021/09/15 04:39:44;;;;;;;13.02;6.82;;;12.70;99.90;;;;;;4877540;29;20121;-95
2021/09/15 04:42:10;;;;;;;16.15;6.72;;;12.70;99.90;;;;;;4877358;29;20577;-96
2021/09/15 04:44:36;;;;;;;10.48;5.90;;;12.70;99.90;;;;;;4876931;29;20037;-95
2021/09/15 04:47:01;;;;;;;11.57;7.15;;;12.70;99.90;;;;;;4877348;29;20036;-95
2021/09/15 04:49:27;;;;;;;13.63;7.57;;;12.70;99.90;;;;;;4877582;29;20404;-95
2021/09/15 04:51:53;;;;;;;12.63;7.53;;;12.80;99.90;;;;;;4877333;29;20186;-96
2021/09/15 04:54:18;;;;;;;9.70;5.65;;;12.80;99.90;;;;;;4877435;29;20040;-96
2021/09/15 04:56:44;;;;;;;10.32;5.75;;;12.80;99.90;;;;;;4877497;29;20041;-96
2021/09/15 04:59:10;;;;;;;11.23;6.50;;;12.80;99.90;;;;;;4877479;29;20057;-95
2021/09/15 05:01:35;;;;;;;11.25;6.38;;;12.80;99.90;;;;;;4878907;29;20033;-95
2021/09/15 05:04:01;;;;;;;15.65;6.82;;;12.80;99.90;;;;;;4878540;29;20069;-95
2021/09/15 05:06:26;;;;;;;14.52;7.03;;;12.80;99.90;;;;;;4877966;29;20057;-96
2021/09/15 05:08:52;;;;;;;9.70;5.85;;;12.90;99.90;;;;;;4889071;29;20032;-96
2021/09/15 05:11:18;;;;;;;15.32;6.38;;;12.90;99.90;;;;;;4916483;29;20387;-95
2021/09/15 05:13:43;;;;;;;11.75;6.63;;;12.90;99.90;;;;;;4916657;29;20028;-95
2021/09/15 05:16:09;;;;;;;11.93;5.25;;;12.90;99.90;;;;;;4917581;29;20081;-96
2021/09/15 05:18:35;;;;;;;11.18;6.22;;;12.90;99.90;;;;;;4917135;29;20100;-95
2021/09/15 05:21:00;;;;;;;11.23;7.18;;;12.90;99.90;;;;;;4917303;29;20115;-94
2021/09/15 05:23:26;;;;;;;10.18;5.75;;;12.90;99.90;;;;;;4916773;29;20024;-96
2021/09/15 05:25:52;;;;;;;10.32;5.70;;;13.00;99.90;;;;;;4920176;29;20040;-95
2021/09/15 05:28:17;;;;;;;8.23;5.38;;;12.90;99.90;;;;;;4920377;29;20024;-95
2021/09/15 05:30:43;;;;;;;13.85;5.78;;;12.90;99.90;;;;;;4920238;29;20035;-95
2021/09/15 05:33:09;;;;;;;11.35;6.30;;;12.90;99.90;;;;;;4920698;29;20028;-95
2021/09/15 05:35:35;;;;;;;11.10;6.68;;;13.00;99.90;;;;;;4920456;29;20511;-95
2021/09/15 05:38:00;;;;;;;11.40;6.75;;;12.90;99.90;;;;;;4919955;29;20605;-93
2021/09/15 05:40:26;;;;;;;11.75;6.63;;;12.90;99.90;;;;;;4920005;29;20028;-93
2021/09/15 05:42:52;;;;;;;12.50;6.95;;;12.90;99.90;;;;;;4920117;29;20036;-93
2021/09/15 05:45:18;;;;;;;9.52;5.63;;;12.90;99.90;;;;;;4920085;29;20063;-93
2021/09/15 05:47:45;;;;;;;10.52;5.85;;;12.90;99.90;;;;;;4920760;29;20043;-96
2021/09/15 05:50:11;;;;;;;9.85;4.97;;;12.90;99.90;;;;;;4921371;29;20045;-96
2021/09/15 05:52:37;;;;;;;9.82;5.28;;;12.80;99.90;;;;;;4921021;29;20618;-95
2021/09/15 05:55:03;;;;;;;8.98;5.07;;;12.80;99.90;;;;;;4920421;29;20032;-95
2021/09/15 05:57:29;;;;;;;7.40;5.15;;;12.90;99.90;;;;;;4919772;29;20032;-95
2021/09/15 05:59:54;;;;;;;7.47;4.82;;;12.90;99.90;;;;;;4919957;29;20080;-96
2021/09/15 06:02:20;;;;;;;7.55;4.70;;;12.90;99.90;;;;;;4920134;29;20032;-94
2021/09/15 06:04:46;;;;;;;11.90;5.20;;;12.90;99.90;;;;;;4919497;29;20032;-96
2021/09/15 06:07:11;;;;;;;10.07;4.78;;;13.00;99.90;;;;;;4918925;29;20056;-94
2021/09/15 06:09:37;;;;;;;8.35;4.07;;;13.00;99.90;;;;;;4919726;29;20039;-96
2021/09/15 06:12:03;;;;;;;5.72;3.58;;;13.00;99.90;;;;;;4920458;29;20039;-95
2021/09/15 06:14:30;;;;;;;7.07;3.28;;;13.00;99.90;;;;;;4918873;29;20036;-94
2021/09/15 06:16:55;;;;;;;5.55;3.70;;;13.10;99.90;;;;;;4918605;29;20028;-94
2021/09/15 06:19:21;;;;;;;8.40;5.05;;;13.10;99.90;;;;;;4934178;29;20039;-96
2021/09/15 06:21:47;;;;;;;9.95;5.97;;;13.10;99.90;;;;;;4925434;29;20533;-94
2021/09/15 06:24:14;;;;;;;9.25;5.68;;;13.10;99.90;;;;;;4936492;29;20036;-95
2021/09/15 06:26:39;;;;;;;10.15;6.25;;;13.10;99.90;;;;;;4928592;29;20085;-94
2021/09/15 06:29:07;;;;;;;9.98;5.88;;;13.10;99.90;;;;;;4925659;29;20029;-95
2021/09/15 06:31:32;;;;;;;10.30;5.85;;;13.10;99.90;;;;;;4955112;29;20020;-95
2021/09/15 06:33:59;;;;;;;11.65;6.32;;;13.10;99.90;;;;;;4947935;29;20008;-94
2021/09/15 06:36:24;;;;;;;8.93;5.68;;;13.10;99.90;;;;;;4949318;29;20028;-95
2021/09/15 06:38:50;;;;;;;10.90;5.95;;;13.10;99.90;;;;;;4954157;29;20020;-95
2021/09/15 06:41:16;;;;;;;14.77;6.38;;;13.10;99.90;;;;;;4964918;28;20072;-95
2021/09/15 06:43:44;;;;;;;9.10;5.80;;;13.20;99.90;;;;;;4943672;29;20035;-95
2021/09/15 06:46:10;;;;;;;9.68;6.00;;;13.10;99.90;;;;;;4932137;29;20046;-96
2021/09/15 06:48:35;;;;;;;8.00;3.75;;;13.20;99.90;;;;;;4924892;29;20029;-95
2021/09/15 06:51:01;;;;;;;5.82;3.85;;;13.30;99.90;;;;;;4941358;29;20032;-96
2021/09/15 06:53:27;;;;;;;4.57;2.92;;;13.30;99.90;;;;;;4926772;29;20032;-94
2021/09/15 06:55:53;;;;;;;4.13;2.53;;;13.40;99.90;;;;;;4938740;29;20036;-96
2021/09/15 06:58:18;;;;;;;7.50;2.85;;;13.50;99.90;;;;;;4921935;29;20028;-94
2021/09/15 07:00:45;;;;;;;4.63;3.00;;;13.50;99.90;;;;;;4928179;29;20020;-96
2021/09/15 07:03:11;;;;;;;7.43;4.55;;;13.50;99.90;;;;;;4960476;28;20031;-94
2021/09/15 07:05:38;;;;;;;6.95;4.13;;;13.60;99.90;;;;;;4930955;28;20036;-95
2021/09/15 07:08:05;;;;;;;6.53;4.80;;;13.70;99.90;;;;;;4927141;29;20048;-92
2021/09/15 07:10:33;;;;;;;7.38;4.80;;;13.70;99.90;;;;;;4933171;29;20109;-94
2021/09/15 07:13:00;;;;;;;8.70;5.03;;;13.80;99.90;;;;;;4937990;29;20032;-96
2021/09/15 07:15:26;;;;;;;5.97;4.22;;;13.80;99.90;;;;;;4940635;29;20028;-95
2021/09/15 07:17:53;;;;;;;4.90;3.80;;;13.80;99.90;;;;;;4947510;28;20042;-95
2021/09/15 07:20:20;;;;;;;6.13;3.80;;;13.90;99.90;;;;;;4930056;29;20120;-92
2021/09/15 07:22:45;;;;;;;4.80;3.50;;;13.90;99.90;;;;;;4931208;28;20021;-96
2021/09/15 07:25:11;;;;;;;5.45;3.35;;;14.00;99.90;;;;;;4931420;29;20537;-95
2021/09/15 07:27:38;;;;;;;4.43;3.40;;;14.00;99.90;;;;;;4937438;29;20067;-94
2021/09/15 07:30:04;;;;;;;8.45;3.83;;;14.10;99.90;;;;;;4929803;29;20034;-96
2021/09/15 07:32:31;;;;;;;3.90;2.85;;;14.10;99.90;;;;;;4927653;29;20032;-96
2021/09/15 07:34:56;;;;;;;4.78;2.45;;;14.20;99.90;;;;;;4932512;29;20031;-95
2021/09/15 07:37:23;;;;;;;2.75;2.30;;;14.30;99.90;;;;;;4929504;29;20027;-96
2021/09/15 07:39:48;;;;;;;4.57;2.95;;;14.30;99.90;;;;;;4934871;29;20031;-95
2021/09/15 07:42:14;;;;;;;4.32;2.83;;;14.40;99.90;;;;;;4931887;29;20024;-96
2021/09/15 07:44:40;;;;;;;21.50;5.38;;;14.40;99.90;;;;;;4934690;29;20024;-96
2021/09/15 07:47:06;;;;;;;7.10;4.90;;;14.40;99.90;;;;;;4932809;29;20409;-94
2021/09/15 07:49:31;;;;;;;8.30;4.25;;;14.40;99.90;;;;;;4927373;29;20038;-95
2021/09/15 07:51:57;;;;;;;8.77;4.45;;;14.50;99.90;;;;;;4928370;29;20036;-94
2021/09/15 07:54:23;;;;;;;6.05;4.05;;;14.40;99.90;;;;;;4938293;29;20028;-94
2021/09/15 07:56:49;;;;;;;7.78;4.60;;;14.40;99.90;;;;;;4932759;29;20363;-94
2021/09/15 07:59:14;;;;;;;11.93;5.75;;;14.50;99.90;;;;;;4940379;28;20486;-95
2021/09/15 08:01:40;;;;;;;10.48;5.20;;;14.40;99.90;;;;;;4920186;29;20115;-95
2021/09/15 08:04:06;;;;;;;11.90;5.47;;;14.40;99.90;;;;;;4943917;29;20055;-96
2021/09/15 08:06:31;;;;;;;9.85;5.43;;;14.40;99.90;;;;;;4937922;29;20466;-96
2021/09/15 08:08:57;;;;;;;9.70;4.45;;;14.50;99.90;;;;;;4943824;29;20031;-94
2021/09/15 08:11:23;;;;;;;8.38;5.28;;;14.50;99.90;;;;;;4929434;29;20032;-94
2021/09/15 08:13:51;;;;;;;5.40;4.00;;;14.50;99.90;;;;;;4937864;29;20123;-95
2021/09/15 08:16:17;;;;;;;5.47;3.65;;;14.60;99.90;;;;;;4948375;29;20035;-96
2021/09/15 08:18:42;;;;;;;8.77;4.47;;;14.60;99.90;;;;;;4946260;29;20086;-95
2021/09/15 08:21:08;;;;;;;6.85;4.30;;;14.60;99.90;;;;;;4943362;29;20019;-93
2021/09/15 08:23:34;;;;;;;7.65;4.28;;;14.70;99.90;;;;;;4931574;29;20122;-96
2021/09/15 08:26:00;;;;;;;10.85;4.55;;;14.70;99.90;;;;;;4949350;28;20126;-93
2021/09/15 08:28:26;;;;;;;6.28;4.22;;;14.80;99.90;;;;;;4926318;29;20023;-93
2021/09/15 08:30:52;;;;;;;5.28;1.83;;;14.90;99.90;;;;;;4924769;29;20032;-95
2021/09/15 08:33:17;;;;;;;3.00;1.38;;;15.00;99.90;;;;;;4926227;29;20044;-96
2021/09/15 08:35:43;;;;;;;2.80;1.80;;;15.20;99.90;;;;;;4925305;29;20036;-94
2021/09/15 08:38:12;;;;;;;2.13;1.58;;;15.30;99.90;;;;;;4945573;28;20082;-93
2021/09/15 08:40:42;;;;;;;2.30;0.90;;;15.50;99.90;;;;;;4946629;28;20033;-94
2021/09/15 08:43:07;;;;;;;1.15;1.02;;;15.60;99.90;;;;;;4944684;29;20043;-96
2021/09/15 08:45:33;;;;;;;1.08;0.98;;;15.70;99.90;;;;;;4943310;28;20032;-96
2021/09/15 08:48:02;;;;;;;1.95;1.02;;;15.80;99.90;;;;;;4947880;29;20032;-96
2021/09/15 08:50:28;;;;;;;0.85;0.82;;;15.90;99.90;;;;;;4944371;29;20051;-94
2021/09/15 08:52:54;;;;;;;1.65;1.00;;;16.00;99.90;;;;;;4945872;29;20119;-95
2021/09/15 08:55:19;;;;;;;2.85;1.02;;;16.10;99.90;;;;;;4945174;29;20058;-96
2021/09/15 08:57:46;;;;;;;0.80;0.80;;;16.20;99.90;;;;;;4945876;28;20027;-95
2021/09/15 09:00:13;;;;;;;1.00;0.80;;;16.30;99.90;;;;;;4957020;29;20032;-95
2021/09/15 09:02:48;;;;;;;1.00;0.90;;;16.30;99.90;;;;;;4952146;29;20024;-96
2021/09/15 09:05:15;;;;;;;0.70;0.70;;;16.40;99.90;;;;;;4962319;29;20028;-95
2021/09/15 09:07:40;;;;;;;1.75;0.90;;;16.40;99.90;;;;;;4955913;28;20052;-96
2021/09/15 09:10:15;;;;;;;1.23;0.60;;;16.40;99.90;;;;;;4922354;29;20056;-96
2021/09/15 09:12:50;;;;;;;2.30;0.77;;;16.50;99.90;;;;;;4950279;29;20133;-96
2021/09/15 09:15:15;;;;;;;1.63;1.20;;;16.50;99.90;;;;;;4971287;29;20087;-96
2021/09/15 09:17:41;;;;;;;2.10;0.90;;;16.40;99.90;;;;;;4957902;29;20067;-96
2021/09/15 09:20:22;;;;;;;0.82;0.80;;;16.40;99.90;;;;;;4954542;29;20095;-96
2021/09/15 09:23:18;;;;;;;1.13;0.60;;;16.30;99.90;;;;;;4956999;29;20480;-94
2021/09/15 09:26:08;;;;;;;1.92;0.77;;;16.30;99.90;;;;;;4943238;29;20043;-95
2021/09/15 09:28:41;;;;;;;1.95;0.80;;;16.40;99.90;;;;;;4938174;29;20032;-96
2021/09/15 09:34:04;;;;;;;1.67;0.73;;;16.60;99.90;;;;;;4956346;28;20095;-95
2021/09/15 09:36:30;;;;;;;0.63;0.63;;;16.70;99.90;;;;;;4960515;28;20047;-95
2021/09/15 09:38:56;;;;;;;1.17;0.60;;;16.90;99.90;;;;;;4941078;29;20031;-96
2021/09/15 09:49:16;;;;;;;0.60;0.60;;;17.90;99.90;;;;;;4957329;28;20347;-96
2021/09/15 09:51:42;;;;;;;0.80;0.65;;;18.10;99.90;;;;;;4942922;28;20063;-96
2021/09/15 09:54:11;;;;;;;0.57;0.50;;;18.30;99.90;;;;;;4940361;29;20031;-96
2021/09/15 09:56:57;;;;;;;0.57;0.45;;;18.50;99.90;;;;;;4960292;29;20015;-95
2021/09/15 09:59:27;;;;;;;0.45;0.40;;;18.70;99.90;;;;;;4940575;29;20031;-96
2021/09/15 10:02:00;;;;;;;1.10;0.50;;;18.90;99.90;;;;;;4958415;29;20004;-96
2021/09/15 10:04:28;;;;;;;0.93;0.68;;;19.00;99.90;;;;;;4941298;29;20027;-95
2021/09/15 10:06:55;;;;;;;0.55;0.55;;;19.10;99.90;;;;;;4940496;29;20107;-94
2021/09/15 10:09:23;;;;;;;0.68;0.60;;;19.30;99.90;;;;;;4932566;29;20015;-94
2021/09/15 10:11:49;;;;;;;0.98;0.52;;;19.50;99.60;;;;;;4934517;29;20110;-95
2021/09/15 10:14:19;;;;;;;0.50;0.50;;;19.70;99.10;;;;;;4957965;29;20014;-95
2021/09/15 10:17:13;;;;;;;0.60;0.50;;;20.00;98.00;;;;;;4939714;29;20019;-96
2021/09/15 10:19:41;;;;;;;0.50;0.50;;;20.20;96.80;;;;;;4941495;29;20051;-96
2021/09/15 10:22:08;;;;;;;0.65;0.45;;;20.40;96.00;;;;;;4946832;29;20539;-95
2021/09/15 10:24:59;;;;;;;1.00;0.50;;;20.60;95.10;;;;;;4954055;29;20031;-96
2021/09/15 10:27:48;;;;;;;1.02;0.73;;;20.80;93.90;;;;;;4957387;29;20036;-96
2021/09/15 10:30:14;;;;;;;0.68;0.50;;;20.90;92.80;;;;;;4944771;29;20445;-95
2021/09/15 10:32:55;;;;;;;0.50;0.40;;;21.00;92.50;;;;;;4957336;29;20032;-94
2021/09/15 10:35:45;;;;;;;0.77;0.50;;;21.20;92.00;;;;;;4992791;23;20059;-96
2021/09/15 10:38:15;;;;;;;0.85;0.73;;;21.40;90.70;;;;;;4964930;28;20027;-96
2021/09/15 10:40:43;;;;;;;2.17;0.60;;;21.60;90.70;;;;;;4962481;29;20031;-95
2021/09/15 10:43:42;;;;;;;0.85;0.60;;;21.90;90.30;;;;;;4973777;28;20012;-96
2021/09/15 10:46:21;;;;;;;1.48;0.77;;;22.20;88.50;;;;;;4960595;29;20043;-95
2021/09/15 10:49:17;;;;;;;0.55;0.52;;;22.40;87.00;;;;;;4957206;29;20098;-93
2021/09/15 10:51:48;;;;;;;0.50;0.50;;;22.70;85.40;;;;;;4973625;29;20079;-95
2021/09/15 10:54:44;;;;;;;0.93;0.50;;;22.80;84.00;;;;;;4946390;29;20027;-94
2021/09/15 10:57:31;;;;;;;0.70;0.55;;;22.80;82.90;;;;;;4971483;28;20041;-96
2021/09/15 11:02:43;;;;;;;1.25;0.70;;;22.40;82.90;;;;;;5011704;23;20046;-96
2021/09/15 11:05:28;;;;;;;0.60;0.60;;;22.00;83.20;;;;;;4945570;29;20115;-93
2021/09/15 11:07:54;;;;;;;0.75;0.73;;;22.00;83.90;;;;;;4938810;29;20027;-96
2021/09/15 11:10:32;;;;;;;0.95;0.40;;;22.10;84.00;;;;;;4940224;29;20032;-95
2021/09/15 11:12:59;;;;;;;0.50;0.50;;;22.50;83.00;;;;;;4926076;29;20123;-95
2021/09/15 11:15:38;;;;;;;0.95;0.43;;;22.80;81.60;;;;;;4946999;29;20023;-96
2021/09/15 11:18:05;;;;;;;0.95;0.90;;;23.10;80.30;;;;;;4943175;28;20023;-95
2021/09/15 11:20:35;;;;;;;3.40;1.10;;;23.50;79.10;;;;;;4939419;29;20031;-94
2021/09/15 11:23:09;;;;;;;0.98;0.60;;;23.60;77.00;;;;;;4941679;28;20028;-95
2021/09/15 11:25:35;;;;;;;1.17;0.75;;;23.60;77.00;;;;;;4944773;28;20019;-96
2021/09/15 11:28:16;;;;;;;0.73;0.55;;;23.60;77.20;;;;;;4961678;28;20051;-96
2021/09/15 11:30:56;;;;;;;0.50;0.50;;;23.50;77.10;;;;;;4991619;23;20111;-96
2021/09/15 11:33:30;;;;;;;0.95;0.85;;;23.70;77.00;;;;;;4978540;28;20075;-95
2021/09/15 11:36:07;;;;;;;1.48;0.88;;;23.70;76.30;;;;;;4959977;28;20039;-96
2021/09/15 11:38:36;;;;;;;2.15;1.10;;;23.80;76.30;;;;;;4949039;28;20023;-96
2021/09/15 11:41:14;;;;;;;1.52;1.42;;;24.20;76.10;;;;;;4949469;28;20031;-95
2021/09/15 11:43:43;;;;;;;1.83;1.65;;;24.30;74.70;;;;;;4967099;28;20043;-96
2021/09/15 11:46:09;;;;;;;3.22;1.35;;;24.50;74.40;;;;;;4964854;28;20027;-96
2021/09/15 11:48:39;;;;;;;2.30;1.77;;;24.60;73.40;;;;;;4968686;29;20023;-96
2021/09/15 11:51:23;;;;;;;1.33;1.23;;;24.70;73.30;;;;;;4938764;29;20052;-95
2021/09/15 11:54:01;;;;;;;2.35;1.25;;;24.50;72.20;;;;;;4936309;29;20028;-94
2021/09/15 12:01:51;;;;;;;2.20;0.98;;;23.70;73.30;;;;;;5094322;23;20086;-95
2021/09/15 12:04:23;;;;;;;3.25;1.50;;;23.40;73.80;;;;;;4948616;29;20047;-94
2021/09/15 12:06:49;;;;;;;1.17;1.00;;;23.20;74.90;;;;;;4923432;29;20028;-94
2021/09/15 12:09:16;;;;;;;2.88;1.50;;;23.10;75.10;;;;;;4946608;29;20024;-93
2021/09/15 12:11:48;;;;;;;1.88;1.63;;;23.00;75.00;;;;;;4925024;29;20112;-93
2021/09/15 12:14:14;;;;;;;2.33;1.80;;;22.90;74.90;;;;;;4924912;29;20020;-94
2021/09/15 12:16:43;;;;;;;1.92;1.70;;;22.60;75.30;;;;;;4934801;28;20048;-96
2021/09/15 12:19:16;;;;;;;3.05;1.75;;;22.30;76.20;;;;;;4921133;29;20016;-96
2021/09/15 12:21:48;;;;;;;2.13;1.77;;;22.40;76.50;;;;;;4913418;29;20044;-96
2021/09/15 12:24:15;;;;;;;1.80;1.50;;;22.50;76.20;;;;;;4933737;29;20020;-94
2021/09/15 12:26:47;;;;;;;2.63;1.70;;;22.70;76.20;;;;;;4923863;29;20087;-96
2021/09/15 12:29:17;;;;;;;3.00;1.83;;;22.80;75.90;;;;;;4932590;29;20097;-96
2021/09/15 12:39:57;;;;;;;1.50;1.20;;;22.60;76.10;;;;;;4971165;29;20090;-94
2021/09/15 12:42:33;;;;;;;2.25;1.45;;;22.50;76.00;;;;;;4974292;29;20031;-96
2021/09/15 12:45:00;;;;;;;2.10;1.55;;;22.40;76.30;;;;;;4961941;28;20015;-96
2021/09/15 12:47:44;;;;;;;2.15;1.52;;;22.40;76.80;;;;;;4973864;29;20034;-96
2021/09/15 12:50:13;;;;;;;3.00;1.80;;;22.40;77.10;;;;;;4952008;29;20023;-95
2021/09/15 12:52:42;;;;;;;4.00;1.58;;;22.30;77.10;;;;;;4961634;29;20556;-96
2021/09/15 12:55:08;;;;;;;3.00;1.67;;;22.40;77.00;;;;;;4927519;29;20031;-94
2021/09/15 12:57:35;;;;;;;2.50;1.50;;;22.60;76.50;;;;;;4947215;29;20083;-95
2021/09/15 13:00:19;;;;;;;2.55;1.60;;;22.80;76.20;;;;;;4969884;29;20028;-96
2021/09/15 13:03:06;;;;;;;3.05;1.75;;;22.80;75.40;;;;;;4939403;29;20023;-96
2021/09/15 13:05:36;;;;;;;3.10;1.75;;;22.90;75.10;;;;;;4909379;29;20159;-96
2021/09/15 13:08:02;;;;;;;1.30;1.20;;;22.80;74.80;;;;;;4929701;29;20035;-96
2021/09/15 13:10:28;;;;;;;1.70;1.30;;;22.70;74.90;;;;;;4929746;29;20091;-96
2021/09/15 13:12:54;;;;;;;1.77;1.20;;;22.60;75.10;;;;;;4931003;29;20051;-96
2021/09/15 13:15:20;;;;;;;1.75;1.50;;;22.50;75.20;;;;;;4942662;29;20031;-96
2021/09/15 13:17:47;;;;;;;2.10;1.33;;;22.40;75.70;;;;;;4927966;29;20043;-96
2021/09/15 13:20:13;;;;;;;2.35;1.40;;;22.20;76.40;;;;;;4921142;29;20100;-96